Time;durP1;ratioP1;P1;durP2;ratioP2;P2;SDS_P1;SDS_P2;PMS_P1;PMS_P2;Temp;Humidity;BMP_temperature;BMP_pressure;BME280_temperature;BME280_humidity;BME280_pressure;Samples;Min_cycle;Max_cycle;Signal;HPM_P1;HPM_P2
2021/03/22 09:24:02;;;;;;;6.03;2.03;;;10.50;99.90;;;;;;4930865;23;20823;-68
2021/03/22 09:26:59;;;;;;;7.47;1.80;;;10.70;99.90;;;;;;4882209;29;20574;-66
2021/03/22 09:29:35;;;;;;;3.93;1.80;;;10.70;99.90;;;;;;4855907;29;20685;-69
2021/03/22 09:32:04;;;;;;;6.70;2.17;;;10.80;99.90;;;;;;4891320;29;20210;-71
2021/03/22 09:34:43;;;;;;;8.00;2.73;;;10.90;99.90;;;;;;4898633;29;20551;-67
2021/03/22 09:37:43;;;;;;;7.67;2.33;;;10.90;99.90;;;;;;4898929;29;20222;-70
2021/03/22 09:40:27;;;;;;;6.67;2.10;;;10.90;99.90;;;;;;4902336;29;20298;-73
2021/03/22 09:43:10;;;;;;;7.13;2.30;;;10.90;99.90;;;;;;4890601;29;20219;-65
2021/03/22 09:45:38;;;;;;;6.43;2.00;;;10.80;99.90;;;;;;4898644;29;20215;-67
2021/03/22 09:48:23;;;;;;;10.30;2.37;;;10.70;99.90;;;;;;4898875;29;20601;-67
2021/03/22 09:51:23;;;;;;;10.23;1.87;;;10.60;99.90;;;;;;4899005;29;20241;-66
2021/03/22 09:53:52;;;;;;;5.70;2.30;;;10.50;99.90;;;;;;4897341;29;20558;-67
2021/03/22 09:56:28;;;;;;;10.20;2.10;;;10.10;99.90;;;;;;4898778;29;20665;-68
2021/03/22 09:59:26;;;;;;;5.67;2.57;;;9.80;99.90;;;;;;4899258;29;20210;-71
2021/03/22 10:01:54;;;;;;;5.10;2.23;;;9.60;99.90;;;;;;4897997;29;20577;-70
2021/03/22 10:04:32;;;;;;;9.20;2.63;;;9.60;99.90;;;;;;4898792;29;20206;-71
2021/03/22 10:07:22;;;;;;;9.43;2.40;;;9.60;99.90;;;;;;4896872;29;20314;-68
2021/03/22 10:09:53;;;;;;;8.53;2.13;;;9.60;99.90;;;;;;4885777;29;20242;-68
2021/03/22 10:12:22;;;;;;;6.57;2.30;;;9.60;99.90;;;;;;4899081;29;20221;-71
2021/03/22 10:15:18;;;;;;;6.03;2.43;;;9.50;99.90;;;;;;4897090;29;20705;-67
2021/03/22 10:17:49;;;;;;;7.50;2.50;;;9.50;99.90;;;;;;4901531;29;20673;-69
2021/03/22 10:20:23;;;;;;;5.13;2.23;;;9.50;99.90;;;;;;4897791;29;20231;-71
2021/03/22 10:23:00;;;;;;;5.33;1.67;;;9.50;99.90;;;;;;4897572;29;20226;-69
2021/03/22 10:25:30;;;;;;;6.43;2.20;;;9.70;99.90;;;;;;4898317;29;20210;-68
2021/03/22 10:28:01;;;;;;;6.20;1.80;;;9.70;99.90;;;;;;4898381;29;20265;-69
2021/03/22 10:30:29;;;;;;;5.37;1.47;;;9.60;99.90;;;;;;4897911;29;20222;-70
2021/03/22 10:33:00;;;;;;;6.10;2.00;;;9.70;99.90;;;;;;4898338;29;20216;-68
2021/03/22 10:35:29;;;;;;;10.77;2.10;;;9.70;99.90;;;;;;4898208;29;20229;-69
2021/03/22 10:37:57;;;;;;;2.73;1.43;;;9.80;99.90;;;;;;4897338;29;20222;-71
2021/03/22 10:40:28;;;;;;;8.43;1.80;;;9.70;99.90;;;;;;4897565;29;20689;-70
2021/03/22 10:42:55;;;;;;;8.10;2.20;;;9.70;99.90;;;;;;4897809;29;20207;-69
2021/03/22 10:45:36;;;;;;;4.37;2.13;;;9.80;99.90;;;;;;4897761;29;20213;-69
2021/03/22 10:48:20;;;;;;;4.33;1.80;;;10.00;99.90;;;;;;4897682;29;20210;-69
2021/03/22 10:50:46;;;;;;;7.93;1.83;;;10.00;99.90;;;;;;4897824;29;20317;-70
2021/03/22 10:53:16;;;;;;;3.53;1.50;;;9.90;99.90;;;;;;4897284;29;20629;-70
2021/03/22 10:55:45;;;;;;;5.30;2.33;;;9.80;99.90;;;;;;4897796;29;20233;-68
2021/03/22 10:58:19;;;;;;;6.43;2.23;;;9.90;99.90;;;;;;4897681;29;20581;-67
2021/03/22 11:00:46;;;;;;;5.67;2.13;;;9.80;99.90;;;;;;4897137;29;20590;-68
2021/03/22 11:03:20;;;;;;;4.53;1.80;;;9.80;99.90;;;;;;4905478;29;20210;-70
2021/03/22 11:05:47;;;;;;;7.13;1.60;;;9.80;99.90;;;;;;4897853;29;20666;-68
2021/03/22 11:08:24;;;;;;;6.63;1.27;;;9.90;99.90;;;;;;4897145;29;20258;-68
2021/03/22 11:11:03;;;;;;;1.53;0.90;;;9.90;99.90;;;;;;4897752;29;20226;-68
2021/03/22 11:13:32;;;;;;;5.00;1.40;;;9.80;99.90;;;;;;4898186;29;20218;-68
2021/03/22 11:16:00;;;;;;;7.17;1.40;;;9.60;99.90;;;;;;4896045;29;20207;-68
2021/03/22 11:18:29;;;;;;;4.57;1.30;;;9.70;99.90;;;;;;4916297;29;20607;-70
2021/03/22 11:20:57;;;;;;;4.17;1.53;;;9.90;99.90;;;;;;4908197;29;20597;-67
2021/03/22 11:23:40;;;;;;;3.60;1.13;;;10.00;99.90;;;;;;4896754;29;20226;-68
2021/03/22 11:26:14;;;;;;;5.13;1.43;;;10.20;99.90;;;;;;4896799;29;20241;-68
2021/03/22 11:28:40;;;;;;;16.07;5.43;;;10.30;99.90;;;;;;4912898;29;20234;-67
2021/03/22 11:31:18;;;;;;;5.73;1.73;;;10.50;99.90;;;;;;4906044;29;20238;-68
2021/03/22 11:33:57;;;;;;;4.07;1.10;;;10.60;99.90;;;;;;4912379;29;20217;-68
2021/03/22 11:36:33;;;;;;;4.33;1.37;;;10.60;99.90;;;;;;4900292;29;20214;-68
2021/03/22 11:39:08;;;;;;;2.43;1.10;;;10.60;99.90;;;;;;4896291;29;20214;-70
2021/03/22 11:41:37;;;;;;;1.57;1.00;;;10.70;99.90;;;;;;4896696;29;20211;-69
2021/03/22 11:44:18;;;;;;;8.10;1.10;;;10.80;99.90;;;;;;4895737;29;20523;-69
2021/03/22 11:46:48;;;;;;;1.90;0.90;;;10.90;99.90;;;;;;4897008;29;20257;-69
2021/03/22 11:49:38;;;;;;;1.70;0.90;;;10.90;99.90;;;;;;4896777;29;20238;-71
2021/03/22 11:52:16;;;;;;;3.10;1.03;;;10.90;99.90;;;;;;4896173;29;20221;-69
2021/03/22 11:54:54;;;;;;;1.80;0.90;;;10.90;99.90;;;;;;4897423;29;20221;-68
2021/03/22 11:57:25;;;;;;;1.87;0.80;;;10.80;99.90;;;;;;4897865;29;20214;-66
2021/03/22 11:59:54;;;;;;;2.43;1.10;;;10.80;99.90;;;;;;4915344;29;20712;-67
2021/03/22 12:02:27;;;;;;;2.60;1.10;;;10.90;99.90;;;;;;4916434;29;20221;-67
2021/03/22 12:04:57;;;;;;;3.83;1.03;;;11.00;99.90;;;;;;4916851;29;20209;-66
2021/03/22 12:07:44;;;;;;;2.17;1.27;;;10.80;99.90;;;;;;4917044;29;20216;-67
2021/03/22 12:10:17;;;;;;;2.33;1.50;;;10.70;99.90;;;;;;4916559;29;20268;-66
2021/03/22 12:12:43;;;;;;;4.10;1.30;;;10.70;99.90;;;;;;4916723;29;20205;-67
2021/03/22 12:15:11;;;;;;;6.47;1.23;;;10.70;99.90;;;;;;4916760;29;20225;-66
2021/03/22 12:17:39;;;;;;;3.03;1.47;;;10.50;99.90;;;;;;4916660;29;20273;-66
2021/03/22 12:20:08;;;;;;;2.47;0.97;;;10.50;99.90;;;;;;4916666;29;20604;-67
2021/03/22 12:22:34;;;;;;;5.43;1.10;;;10.40;99.90;;;;;;4916535;29;20224;-66
2021/03/22 12:25:00;;;;;;;3.20;1.20;;;10.40;99.90;;;;;;4916592;29;20213;-67
2021/03/22 12:27:27;;;;;;;3.27;0.93;;;10.30;99.90;;;;;;4916689;29;20213;-66
2021/03/22 12:29:53;;;;;;;6.50;1.13;;;10.30;99.90;;;;;;4916417;29;20249;-66
2021/03/22 12:32:23;;;;;;;2.90;1.10;;;10.40;99.90;;;;;;4916469;29;20691;-66
2021/03/22 12:34:50;;;;;;;3.87;1.40;;;10.60;99.90;;;;;;4916924;29;20213;-66
2021/03/22 12:37:24;;;;;;;3.53;1.37;;;10.70;99.90;;;;;;4916725;29;20216;-66
2021/03/22 12:39:50;;;;;;;3.37;1.27;;;10.80;99.90;;;;;;4916514;29;20232;-66
2021/03/22 12:42:18;;;;;;;4.90;1.67;;;10.90;99.90;;;;;;4916283;29;20597;-66
2021/03/22 12:44:44;;;;;;;3.87;1.30;;;11.20;99.90;;;;;;4916497;29;20213;-67
2021/03/22 12:47:16;;;;;;;6.80;1.20;;;11.40;99.90;;;;;;4916426;29;20206;-66
2021/03/22 12:49:42;;;;;;;6.43;1.10;;;11.40;99.90;;;;;;4916319;29;20237;-66
2021/03/22 12:52:09;;;;;;;2.80;1.10;;;11.50;99.90;;;;;;4916505;29;20209;-67
2021/03/22 12:54:35;;;;;;;1.70;0.80;;;11.30;99.90;;;;;;4916143;29;20209;-67
2021/03/22 12:57:01;;;;;;;3.33;0.80;;;11.10;99.90;;;;;;4918846;29;20210;-66
2021/03/22 12:59:41;;;;;;;5.10;0.90;;;11.20;99.90;;;;;;4919853;29;20230;-65
2021/03/22 13:02:17;;;;;;;2.97;0.40;;;11.10;99.90;;;;;;4903689;29;20214;-67
2021/03/22 13:04:43;;;;;;;3.47;0.60;;;11.00;99.90;;;;;;4917862;29;20264;-66
2021/03/22 13:07:11;;;;;;;2.47;0.60;;;11.00;99.90;;;;;;4903833;29;20218;-67
2021/03/22 13:09:39;;;;;;;2.40;0.80;;;10.90;99.90;;;;;;4899207;29;20241;-68
2021/03/22 13:12:08;;;;;;;3.27;0.70;;;11.00;99.90;;;;;;4900460;29;20606;-67
2021/03/22 13:14:35;;;;;;;1.47;0.77;;;11.10;99.90;;;;;;4916834;29;20217;-69
2021/03/22 13:17:01;;;;;;;1.60;0.60;;;11.20;99.90;;;;;;4909757;29;20221;-67
2021/03/22 13:19:27;;;;;;;2.73;1.00;;;11.20;99.90;;;;;;4899112;29;20262;-68
2021/03/22 13:21:53;;;;;;;2.50;0.60;;;11.40;99.90;;;;;;4899443;29;20218;-70
2021/03/22 13:24:22;;;;;;;2.10;0.70;;;11.60;99.90;;;;;;4898595;29;20238;-67
2021/03/22 13:26:49;;;;;;;1.30;0.70;;;11.60;99.90;;;;;;4911839;29;20223;-69
2021/03/22 13:29:15;;;;;;;4.53;1.20;;;11.80;99.90;;;;;;4899013;29;20578;-72
2021/03/22 13:31:42;;;;;;;4.43;0.60;;;11.70;99.90;;;;;;4898689;29;20219;-68
2021/03/22 13:34:11;;;;;;;2.53;0.90;;;11.60;99.90;;;;;;4899720;29;20230;-72
2021/03/22 13:36:37;;;;;;;1.40;0.80;;;11.70;99.90;;;;;;4898834;29;20202;-70
2021/03/22 13:39:04;;;;;;;1.50;0.80;;;11.80;99.90;;;;;;4898216;29;20619;-69
2021/03/22 13:41:33;;;;;;;1.60;0.70;;;11.70;99.90;;;;;;4899226;29;20306;-71
2021/03/22 13:44:02;;;;;;;4.50;0.83;;;11.80;99.90;;;;;;4899553;29;21141;-71
2021/03/22 13:46:30;;;;;;;1.60;0.77;;;11.80;99.90;;;;;;4898783;29;20277;-72
2021/03/22 13:48:56;;;;;;;2.57;0.90;;;11.70;99.90;;;;;;4898846;29;20712;-69
2021/03/22 13:51:26;;;;;;;1.77;0.60;;;11.70;99.90;;;;;;4911415;29;20285;-72
2021/03/22 13:53:59;;;;;;;1.93;0.97;;;11.70;99.90;;;;;;4918390;29;20308;-74
2021/03/22 13:56:27;;;;;;;1.87;0.40;;;11.50;99.90;;;;;;4915555;29;20206;-67
2021/03/22 13:58:55;;;;;;;2.00;0.60;;;11.30;99.70;;;;;;4900323;29;20213;-66
2021/03/22 14:01:21;;;;;;;1.23;0.70;;;11.10;99.90;;;;;;4901952;29;20724;-67
2021/03/22 14:03:47;;;;;;;1.17;0.63;;;11.00;99.90;;;;;;4917695;29;20209;-65
2021/03/22 14:06:13;;;;;;;1.00;0.70;;;11.10;99.90;;;;;;4900099;29;20573;-70
2021/03/22 14:08:40;;;;;;;0.57;0.47;;;11.00;99.90;;;;;;4897330;29;20728;-68
2021/03/22 14:11:06;;;;;;;3.63;0.97;;;11.00;99.90;;;;;;4898575;29;20227;-67
2021/03/22 14:13:33;;;;;;;1.00;0.63;;;11.20;99.90;;;;;;4899139;29;20215;-68
2021/03/22 14:16:01;;;;;;;3.60;0.90;;;11.10;99.90;;;;;;4898049;29;20214;-67
2021/03/22 14:18:29;;;;;;;1.30;0.50;;;11.20;99.90;;;;;;4898113;29;20254;-66
2021/03/22 14:20:56;;;;;;;1.10;0.53;;;11.20;99.90;;;;;;4897981;29;20725;-68
2021/03/22 14:23:24;;;;;;;1.17;0.70;;;11.20;99.90;;;;;;4898361;29;20222;-70
2021/03/22 14:25:51;;;;;;;2.73;0.90;;;11.20;99.90;;;;;;4898613;29;20301;-69
2021/03/22 14:28:18;;;;;;;0.97;0.60;;;11.20;99.90;;;;;;4898139;29;20217;-70
2021/03/22 14:30:46;;;;;;;1.20;0.70;;;11.20;99.90;;;;;;4896295;29;20631;-69
2021/03/22 14:33:16;;;;;;;2.33;0.70;;;11.30;99.90;;;;;;4898455;29;20211;-70
2021/03/22 14:35:43;;;;;;;2.53;0.77;;;11.20;99.90;;;;;;4898136;29;20233;-67
2021/03/22 14:38:09;;;;;;;2.67;0.80;;;11.10;99.90;;;;;;4897414;29;20214;-69
2021/03/22 14:40:36;;;;;;;2.97;0.80;;;11.10;99.90;;;;;;4897599;29;20586;-68
2021/03/22 14:43:02;;;;;;;2.20;0.80;;;11.20;99.90;;;;;;4898307;29;20210;-68
2021/03/22 14:45:30;;;;;;;1.10;0.60;;;11.20;99.90;;;;;;4897052;29;20678;-69
2021/03/22 14:47:57;;;;;;;6.93;2.80;;;11.20;99.90;;;;;;4899277;29;20215;-68
2021/03/22 14:50:27;;;;;;;3.27;0.80;;;11.10;99.90;;;;;;4909950;29;20281;-70
2021/03/22 14:52:54;;;;;;;4.23;1.33;;;11.00;99.90;;;;;;4898078;29;20215;-66
2021/03/22 14:55:23;;;;;;;3.20;0.90;;;10.90;99.90;;;;;;4897938;29;20249;-70
2021/03/22 14:57:49;;;;;;;1.27;0.60;;;10.80;99.90;;;;;;4897808;29;20214;-67
2021/03/22 15:00:22;;;;;;;1.67;0.70;;;10.70;99.90;;;;;;4897229;29;20709;-68
2021/03/22 15:02:49;;;;;;;3.23;1.00;;;10.60;99.90;;;;;;4912132;29;20231;-68
2021/03/22 15:05:16;;;;;;;2.63;0.73;;;10.70;99.90;;;;;;4916387;29;20205;-67
2021/03/22 15:07:43;;;;;;;1.27;0.57;;;10.80;99.90;;;;;;4902573;29;20210;-70
2021/03/22 15:10:11;;;;;;;1.00;0.60;;;10.80;99.90;;;;;;4896400;29;20238;-69
2021/03/22 15:12:37;;;;;;;2.13;0.50;;;10.90;99.90;;;;;;4897216;29;20602;-68
2021/03/22 15:15:05;;;;;;;1.37;0.60;;;11.00;99.90;;;;;;4897117;29;20214;-68
2021/03/22 15:17:32;;;;;;;0.80;0.60;;;11.10;99.90;;;;;;4896814;29;20221;-71
2021/03/22 15:19:58;;;;;;;2.00;0.97;;;11.20;99.90;;;;;;4897645;29;20234;-70
2021/03/22 15:22:25;;;;;;;2.63;0.90;;;11.20;99.90;;;;;;4898409;29;20274;-71
2021/03/22 15:24:52;;;;;;;1.07;0.60;;;11.10;99.90;;;;;;4897815;29;20224;-71
2021/03/22 15:27:18;;;;;;;2.30;0.70;;;11.00;99.90;;;;;;4897738;29;20665;-71
2021/03/22 15:29:45;;;;;;;3.67;1.10;;;10.90;99.30;;;;;;4896754;29;20242;-75
2021/03/22 15:32:11;;;;;;;1.80;0.63;;;10.80;99.50;;;;;;4896422;29;20217;-68
2021/03/22 15:34:37;;;;;;;1.47;0.73;;;10.80;98.50;;;;;;4896378;29;20210;-78
2021/03/22 15:37:04;;;;;;;3.20;1.00;;;10.60;98.30;;;;;;4896052;29;20222;-70
2021/03/22 15:39:30;;;;;;;10.83;1.40;;;10.50;98.40;;;;;;4896522;29;20231;-72
2021/03/22 15:41:57;;;;;;;3.73;0.87;;;10.40;98.20;;;;;;4896926;29;20222;-73
2021/03/22 15:44:24;;;;;;;2.97;1.23;;;10.30;98.40;;;;;;4900396;29;20218;-70
2021/03/22 15:46:50;;;;;;;2.83;0.77;;;10.20;98.60;;;;;;4896732;29;20207;-71
2021/03/22 15:49:16;;;;;;;2.20;1.03;;;10.20;98.70;;;;;;4898666;29;20242;-74
2021/03/22 15:51:43;;;;;;;4.00;1.00;;;10.20;98.80;;;;;;4896584;29;20734;-69
2021/03/22 15:54:09;;;;;;;4.00;1.33;;;10.20;99.10;;;;;;4896849;29;20214;-69
2021/03/22 15:56:35;;;;;;;2.67;1.20;;;10.30;98.60;;;;;;4897597;29;20213;-68
2021/03/22 15:59:03;;;;;;;2.67;0.83;;;10.50;99.30;;;;;;4897083;29;20214;-70
2021/03/22 16:01:29;;;;;;;2.83;1.00;;;10.50;98.90;;;;;;4901281;29;20704;-70
2021/03/22 16:03:55;;;;;;;6.07;0.97;;;10.50;98.80;;;;;;4915704;29;20212;-70
2021/03/22 16:06:22;;;;;;;1.03;0.70;;;10.50;98.80;;;;;;4912749;29;20217;-71
2021/03/22 16:08:48;;;;;;;4.10;1.07;;;10.50;98.40;;;;;;4897248;29;20260;-71
2021/03/22 16:11:14;;;;;;;2.93;1.00;;;10.60;98.30;;;;;;4896732;29;20238;-72
2021/03/22 16:13:41;;;;;;;3.80;1.20;;;10.70;98.10;;;;;;4895725;29;20225;-73
2021/03/22 16:16:09;;;;;;;1.53;1.00;;;10.50;97.80;;;;;;4896152;29;20214;-70
2021/03/22 16:18:35;;;;;;;1.87;1.03;;;10.40;98.00;;;;;;4896228;29;20210;-71
2021/03/22 16:21:04;;;;;;;1.47;0.80;;;10.50;98.40;;;;;;4895693;29;20226;-78
2021/03/22 16:23:33;;;;;;;1.87;1.10;;;10.50;98.10;;;;;;4896276;29;21250;-71
2021/03/22 16:25:59;;;;;;;3.73;1.40;;;10.60;98.40;;;;;;4896496;29;20274;-73
2021/03/22 16:28:27;;;;;;;1.83;1.20;;;10.70;97.70;;;;;;4895869;29;20218;-71
2021/03/22 16:30:54;;;;;;;2.10;0.93;;;10.50;97.40;;;;;;4898360;29;20240;-72
2021/03/22 16:33:23;;;;;;;2.73;1.10;;;10.40;98.00;;;;;;4900366;29;20210;-71
2021/03/22 16:35:52;;;;;;;2.17;1.10;;;10.40;98.00;;;;;;4899842;29;20222;-72
2021/03/22 16:38:22;;;;;;;2.07;1.00;;;10.40;97.80;;;;;;4899361;29;21209;-68
2021/03/22 16:40:51;;;;;;;2.00;1.00;;;10.20;98.00;;;;;;4899668;29;20234;-68
2021/03/22 16:43:20;;;;;;;1.80;1.00;;;10.20;98.40;;;;;;4899332;29;20684;-69
2021/03/22 16:45:48;;;;;;;2.13;0.87;;;10.20;98.20;;;;;;4899734;29;20586;-70
2021/03/22 16:48:15;;;;;;;2.77;1.00;;;10.20;98.00;;;;;;4899432;29;20213;-70
2021/03/22 16:50:42;;;;;;;5.87;1.10;;;10.20;98.50;;;;;;4899369;29;20245;-71
2021/03/22 16:53:09;;;;;;;4.87;1.30;;;10.10;98.30;;;;;;4900021;29;20237;-71
2021/03/22 16:55:36;;;;;;;1.97;0.90;;;10.20;98.40;;;;;;4900204;29;20210;-69
2021/03/22 16:58:04;;;;;;;1.03;0.83;;;10.40;98.50;;;;;;4899560;29;20242;-70
2021/03/22 17:00:31;;;;;;;2.87;1.20;;;10.30;98.40;;;;;;4899680;29;20230;-68
2021/03/22 17:02:59;;;;;;;2.23;0.90;;;10.40;98.10;;;;;;4915162;29;20209;-68
2021/03/22 17:05:30;;;;;;;2.10;1.13;;;10.40;98.40;;;;;;4918063;29;20218;-71
2021/03/22 17:08:00;;;;;;;3.23;1.10;;;10.40;98.30;;;;;;4902675;29;20249;-69
2021/03/22 17:10:28;;;;;;;2.83;1.40;;;10.30;98.90;;;;;;4897631;29;20324;-71
2021/03/22 17:12:54;;;;;;;3.13;1.10;;;10.30;98.60;;;;;;4898743;29;20270;-70
2021/03/22 17:15:22;;;;;;;1.60;1.00;;;10.40;98.70;;;;;;4899755;29;20215;-72
2021/03/22 17:17:49;;;;;;;2.07;1.10;;;10.20;98.60;;;;;;4899245;29;20260;-70
2021/03/22 17:20:16;;;;;;;1.73;1.13;;;10.30;98.70;;;;;;4897875;29;20264;-69
2021/03/22 17:22:43;;;;;;;3.90;1.10;;;10.30;98.70;;;;;;4899332;29;20308;-69
2021/03/22 17:25:19;;;;;;;3.33;1.00;;;10.20;98.80;;;;;;4899208;29;20701;-68
2021/03/22 17:27:45;;;;;;;3.43;0.93;;;10.20;99.20;;;;;;4898346;29;20209;-70
2021/03/22 17:30:13;;;;;;;4.77;1.40;;;10.10;99.20;;;;;;4898682;29;20294;-71
2021/03/22 17:32:39;;;;;;;4.30;1.07;;;10.00;99.40;;;;;;4899033;29;20210;-71
2021/03/22 17:35:06;;;;;;;4.23;1.33;;;9.90;99.90;;;;;;4899129;29;20210;-71
2021/03/22 17:37:33;;;;;;;3.23;1.00;;;9.70;99.90;;;;;;4898792;29;20213;-68
2021/03/22 17:39:59;;;;;;;5.13;1.60;;;9.60;99.90;;;;;;4898710;29;20781;-70
2021/03/22 17:42:26;;;;;;;4.83;1.50;;;9.70;99.90;;;;;;4896877;29;20698;-69
2021/03/22 17:44:52;;;;;;;4.00;1.60;;;9.80;99.90;;;;;;4898644;29;20578;-73
2021/03/22 17:47:18;;;;;;;2.13;0.90;;;9.90;99.90;;;;;;4898198;29;20258;-71
2021/03/22 17:49:45;;;;;;;3.37;1.40;;;9.80;99.90;;;;;;4898043;29;20293;-69
2021/03/22 17:52:11;;;;;;;3.40;1.10;;;9.90;99.90;;;;;;4898029;29;20222;-70
2021/03/22 17:54:38;;;;;;;4.27;1.50;;;9.80;99.90;;;;;;4898596;29;20211;-69
2021/03/22 17:57:05;;;;;;;4.27;1.53;;;9.80;99.90;;;;;;4898056;29;20297;-68
2021/03/22 17:59:32;;;;;;;3.10;1.23;;;9.60;99.90;;;;;;4897259;29;20721;-70
2021/03/22 18:01:58;;;;;;;5.30;1.63;;;9.60;99.90;;;;;;4906368;29;20219;-69
2021/03/22 18:04:24;;;;;;;6.40;1.50;;;9.60;99.90;;;;;;4916493;29;20618;-67
2021/03/22 18:06:50;;;;;;;5.33;1.53;;;9.70;99.90;;;;;;4904117;29;20209;-72
2021/03/22 18:09:17;;;;;;;2.97;1.20;;;9.70;99.90;;;;;;4898095;29;20241;-70
2021/03/22 18:11:43;;;;;;;4.40;1.30;;;9.80;99.90;;;;;;4896570;29;20214;-71
2021/03/22 18:14:10;;;;;;;6.10;1.37;;;9.70;99.90;;;;;;4898476;29;20217;-72
2021/03/22 18:16:37;;;;;;;2.90;1.17;;;9.70;99.90;;;;;;4898343;29;20210;-70
2021/03/22 18:19:03;;;;;;;3.60;1.33;;;9.70;99.90;;;;;;4896074;29;20692;-69
2021/03/22 18:21:29;;;;;;;4.40;1.40;;;9.80;99.90;;;;;;4897851;29;20242;-75
2021/03/22 18:23:56;;;;;;;7.10;1.57;;;9.80;99.90;;;;;;4897873;29;20218;-71
2021/03/22 18:26:22;;;;;;;6.70;1.37;;;9.80;99.90;;;;;;4897269;29;20697;-70
2021/03/22 18:28:48;;;;;;;2.93;1.37;;;9.90;99.90;;;;;;4897070;29;20217;-69
2021/03/22 18:31:15;;;;;;;4.40;1.37;;;9.90;99.90;;;;;;4897780;29;20648;-69
2021/03/22 18:33:42;;;;;;;3.03;1.40;;;9.90;99.90;;;;;;4898289;29;20218;-67
2021/03/22 18:36:09;;;;;;;4.43;1.47;;;9.80;99.90;;;;;;4898786;29;20305;-67
2021/03/22 18:38:35;;;;;;;7.03;2.03;;;9.80;99.90;;;;;;4898990;29;20215;-66
2021/03/22 18:41:02;;;;;;;3.13;1.67;;;9.70;99.90;;;;;;4898737;29;20238;-66
2021/03/22 18:43:33;;;;;;;3.20;1.40;;;9.70;99.90;;;;;;4899074;29;20206;-68
2021/03/22 18:45:59;;;;;;;7.07;1.70;;;9.60;99.90;;;;;;4898932;29;20551;-66
2021/03/22 18:48:26;;;;;;;4.77;1.77;;;9.60;99.90;;;;;;4898002;29;20224;-67
2021/03/22 18:50:54;;;;;;;3.23;1.50;;;9.60;99.90;;;;;;4898294;29;20253;-67
2021/03/22 18:53:22;;;;;;;3.13;1.70;;;9.50;99.90;;;;;;4898738;29;20217;-66
2021/03/22 18:55:48;;;;;;;4.90;1.67;;;9.50;99.90;;;;;;4898505;29;20273;-66
2021/03/22 18:58:15;;;;;;;4.70;1.77;;;9.40;99.90;;;;;;4897796;29;20215;-66
2021/03/22 19:00:45;;;;;;;4.17;1.73;;;9.40;99.90;;;;;;4897962;29;20739;-66
2021/03/22 19:03:14;;;;;;;4.20;1.73;;;9.30;99.90;;;;;;4898035;29;20217;-66
2021/03/22 19:05:42;;;;;;;3.07;1.50;;;9.30;99.90;;;;;;4898059;29;20218;-67
2021/03/22 19:08:10;;;;;;;4.77;1.60;;;9.30;99.90;;;;;;4897991;29;20570;-67
2021/03/22 19:10:40;;;;;;;7.07;1.23;;;9.30;99.90;;;;;;4898100;29;20301;-67
2021/03/22 19:13:07;;;;;;;5.50;1.33;;;9.20;99.90;;;;;;4897510;29;20673;-68
2021/03/22 19:15:34;;;;;;;5.13;2.10;;;9.20;99.90;;;;;;4898001;29;20305;-67
2021/03/22 19:18:02;;;;;;;4.93;1.60;;;9.10;99.90;;;;;;4898829;29;20384;-68
2021/03/22 19:20:28;;;;;;;4.67;1.50;;;9.00;99.90;;;;;;4898273;29;20237;-68
2021/03/22 19:22:54;;;;;;;9.70;2.07;;;9.10;99.90;;;;;;4898257;29;20230;-68
2021/03/22 19:25:21;;;;;;;7.57;1.73;;;9.20;99.90;;;;;;4897934;29;20225;-68
2021/03/22 19:27:47;;;;;;;4.33;1.57;;;9.30;99.90;;;;;;4899366;29;20210;-68
2021/03/22 19:30:18;;;;;;;4.40;2.53;;;9.30;99.90;;;;;;4892690;29;20837;-72
